Time,TemperatureF,DewpointF,PressureIn,WindDirection,WindDirectionDegrees,WindSpeedMPH,WindSpeedGustMPH,Humidity,HourlyPrecipIn,Conditions,Clouds,dailyrainin,SoftwareType,DateUTC
2013-11-21 00:10:00,27.0,11.3,30.44,WSW,247,0.0,-999.0,51,-99.99,,,0.00,Acu-Link.com,2013-11-21 05:10:00,
2013-11-21 00:25:00,27.0,11.3,30.44,West,270,1.1,-999.0,51,-99.99,,,0.00,Acu-Link.com,2013-11-21 05:25:00,
2013-11-21 00:40:00,27.0,12.2,30.44,West,270,0.0,-999.0,53,-99.99,,,0.00,Acu-Link.com,2013-11-21 05:40:00,
2013-11-21 00:55:00,27.0,11.3,30.44,West,270,0.0,-999.0,51,-99.99,,,0.00,Acu-Link.com,2013-11-21 05:55:00,
2013-11-21 01:11:00,26.4,12.0,30.44,West,270,0.0,-999.0,54,-99.99,,,0.00,Acu-Link.com,2013-11-21 06:11:00,
2013-11-21 01:26:00,25.9,10.7,30.45,SW,225,0.0,-999.0,52,-99.99,,,0.00,Acu-Link.com,2013-11-21 06:26:00,
2013-11-21 01:41:00,25.9,12.4,30.45,WNW,292,0.0,-999.0,56,-99.99,,,0.00,Acu-Link.com,2013-11-21 06:41:00,
2013-11-21 01:56:00,25.5,13.2,30.46,West,270,0.0,-999.0,59,-99.99,,,0.00,Acu-Link.com,2013-11-21 06:56:00,
2013-11-21 02:11:00,25.5,11.2,30.46,WNW,292,0.0,-999.0,54,-99.99,,,0.00,Acu-Link.com,2013-11-21 07:11:00,
2013-11-21 02:27:00,25.3,12.6,30.46,WNW,292,1.1,-999.0,58,-99.99,,,0.00,Acu-Link.com,2013-11-21 07:27:00,
2013-11-21 02:42:00,25.3,10.6,30.45,NW,315,0.0,-999.0,53,-99.99,,,0.00,Acu-Link.com,2013-11-21 07:42:00,
2013-11-21 02:57:00,25.5,9.5,30.45,NNW,337,0.0,-999.0,50,-99.99,,,0.00,Acu-Link.com,2013-11-21 07:57:00,
2013-11-21 03:12:00,25.3,11.0,30.45,West,270,0.0,-999.0,54,-99.99,,,0.00,Acu-Link.com,2013-11-21 08:12:00,
2013-11-21 03:27:00,25.2,10.9,30.45,NW,315,0.0,-999.0,54,-99.99,,,0.00,Acu-Link.com,2013-11-21 08:27:00,
2013-11-21 03:43:00,25.3,13.0,30.45,West,270,1.7,-999.0,59,-99.99,,,0.00,Acu-Link.com,2013-11-21 08:43:00,
2013-11-21 03:58:00,25.2,13.3,30.45,West,270,0.0,-999.0,60,-99.99,,,0.00,Acu-Link.com,2013-11-21 08:58:00,
2013-11-21 04:13:00,25.0,13.1,30.45,West,270,0.0,-999.0,60,-99.99,,,0.00,Acu-Link.com,2013-11-21 09:13:00,
2013-11-21 04:28:00,25.0,12.3,30.45,WNW,292,0.0,-999.0,58,-99.99,,,0.00,Acu-Link.com,2013-11-21 09:28:00,
2013-11-21 04:44:00,25.0,13.5,30.45,West,270,0.0,-999.0,61,-99.99,,,0.00,Acu-Link.com,2013-11-21 09:44:00,
2013-11-21 04:59:00,24.3,13.2,30.45,WNW,292,0.0,-999.0,62,-99.99,,,0.00,Acu-Link.com,2013-11-21 09:59:00,
2013-11-21 05:14:00,23.7,11.9,30.45,West,270,0.0,-999.0,60,-99.99,,,0.00,Acu-Link.com,2013-11-21 10:14:00,
2013-11-21 05:29:00,23.9,10.5,30.44,West,270,0.0,-999.0,56,-99.99,,,0.00,Acu-Link.com,2013-11-21 10:29:00,
2013-11-21 05:44:00,24.6,12.3,30.44,WNW,292,0.0,-999.0,59,-99.99,,,0.00,Acu-Link.com,2013-11-21 10:44:00,
2013-11-21 06:00:00,25.2,12.1,30.44,WNW,292,0.0,-999.0,57,-99.99,,,0.00,Acu-Link.com,2013-11-21 11:00:00,
2013-11-21 06:15:00,25.9,14.0,30.44,SSW,202,0.0,-999.0,60,-99.99,,,0.00,Acu-Link.com,2013-11-21 11:15:00,
2013-11-21 06:30:00,25.9,11.2,30.44,NW,315,0.0,-999.0,53,-99.99,,,0.00,Acu-Link.com,2013-11-21 11:30:00,
2013-11-21 06:45:00,25.9,12.0,30.44,South,180,0.0,-999.0,55,-99.99,,,0.00,Acu-Link.com,2013-11-21 11:45:00,
2013-11-21 07:00:00,25.7,13.4,30.44,NNW,337,0.0,-999.0,59,-99.99,,,0.00,Acu-Link.com,2013-11-21 12:00:00,
2013-11-21 07:16:00,26.2,13.1,30.45,WNW,292,0.0,-999.0,57,-99.99,,,0.00,Acu-Link.com,2013-11-21 12:16:00,
2013-11-21 07:31:00,27.5,15.8,30.46,West,270,0.0,-999.0,61,-99.99,,,0.00,Acu-Link.com,2013-11-21 12:31:00,
2013-11-21 07:46:00,29.1,19.2,30.47,SE,135,0.0,-999.0,66,-99.99,,,0.00,Acu-Link.com,2013-11-21 12:46:00,
2013-11-21 08:01:00,29.5,17.7,30.47,ESE,112,0.0,-999.0,61,-99.99,,,0.00,Acu-Link.com,2013-11-21 13:01:00,
2013-11-21 08:16:00,29.7,15.1,30.46,SSE,157,0.0,-999.0,54,-99.99,,,0.00,Acu-Link.com,2013-11-21 13:16:00,
2013-11-21 08:32:00,31.5,16.4,30.45,East,90,0.0,-999.0,53,-99.99,,,0.00,Acu-Link.com,2013-11-21 13:32:00,
2013-11-21 08:47:00,32.4,15.9,30.45,SSE,157,0.0,-999.0,50,-99.99,,,0.00,Acu-Link.com,2013-11-21 13:47:00,
2013-11-21 09:02:00,33.3,16.7,30.45,South,180,0.0,-999.0,50,-99.99,,,0.00,Acu-Link.com,2013-11-21 14:02:00,
2013-11-21 09:17:00,35.1,18.4,30.46,SSE,157,0.0,-999.0,50,-99.99,,,0.00,Acu-Link.com,2013-11-21 14:17:00,
2013-11-21 09:33:00,36.9,17.6,30.46,ESE,112,1.1,-999.0,45,-99.99,,,0.00,Acu-Link.com,2013-11-21 14:33:00,
2013-11-21 09:48:00,35.8,18.1,30.46,East,90,1.7,-999.0,48,-99.99,,,0.00,Acu-Link.com,2013-11-21 14:48:00,
2013-11-21 10:03:00,37.8,17.9,30.44,SSE,157,1.1,-999.0,44,-99.99,,,0.00,Acu-Link.com,2013-11-21 15:03:00,
2013-11-21 10:18:00,37.4,19.0,30.43,ESE,112,1.7,-999.0,47,-99.99,,,0.00,Acu-Link.com,2013-11-21 15:18:00,
2013-11-21 10:33:00,39.7,20.1,30.41,ESE,112,2.7,-999.0,45,-99.99,,,0.00,Acu-Link.com,2013-11-21 15:33:00,
2013-11-21 10:49:00,40.8,21.6,30.41,SE,135,1.7,-999.0,46,-99.99,,,0.00,Acu-Link.com,2013-11-21 15:49:00,
2013-11-21 11:04:00,41.2,23.0,30.40,South,180,0.0,-999.0,48,-99.99,,,0.00,Acu-Link.com,2013-11-21 16:04:00,
2013-11-21 11:19:00,43.9,24.0,30.39,SE,135,3.2,-999.0,45,-99.99,,,0.00,Acu-Link.com,2013-11-21 16:19:00,
2013-11-21 11:34:00,45.1,26.6,30.38,ESE,112,1.7,-999.0,48,-99.99,,,0.00,Acu-Link.com,2013-11-21 16:34:00,
2013-11-21 11:49:00,44.8,27.3,30.37,SSE,157,1.1,-999.0,50,-99.99,,,0.00,Acu-Link.com,2013-11-21 16:49:00,
2013-11-21 12:05:00,47.3,29.6,30.36,WSW,247,1.7,-999.0,50,-99.99,,,0.00,Acu-Link.com,2013-11-21 17:05:00,
2013-11-21 12:20:00,45.1,29.0,30.36,ESE,112,2.7,-999.0,53,-99.99,,,0.00,Acu-Link.com,2013-11-21 17:20:00,
2013-11-21 12:35:00,45.3,28.7,30.37,NNE,22,3.7,-999.0,52,-99.99,,,0.00,Acu-Link.com,2013-11-21 17:35:00,
2013-11-21 12:50:00,44.6,29.0,30.36,ENE,67,2.7,-999.0,54,-99.99,,,0.00,Acu-Link.com,2013-11-21 17:50:00,
2013-11-21 13:05:00,44.1,29.0,30.36,ESE,112,4.2,-999.0,55,-99.99,,,0.00,Acu-Link.com,2013-11-21 18:05:00,
2013-11-21 13:21:00,45.0,29.4,30.35,ESE,112,2.7,-999.0,54,-99.99,,,0.00,Acu-Link.com,2013-11-21 18:21:00,
2013-11-21 13:36:00,44.6,29.4,30.34,ESE,112,4.2,-999.0,55,-99.99,,,0.00,Acu-Link.com,2013-11-21 18:36:00,
2013-11-21 13:51:00,44.4,29.7,30.34,ESE,112,3.2,-999.0,56,-99.99,,,0.00,Acu-Link.com,2013-11-21 18:51:00,
2013-11-21 14:06:00,43.2,30.7,30.34,ESE,112,4.2,-999.0,61,-99.99,,,0.00,Acu-Link.com,2013-11-21 19:06:00,
2013-11-21 14:22:00,43.2,31.9,30.32,East,90,1.7,-999.0,64,-99.99,,,0.00,Acu-Link.com,2013-11-21 19:22:00,
2013-11-21 14:37:00,43.3,30.4,30.31,East,90,2.7,-999.0,60,-99.99,,,0.00,Acu-Link.com,2013-11-21 19:37:00,
2013-11-21 14:52:00,44.4,30.6,30.32,ENE,67,1.7,-999.0,58,-99.99,,,0.00,Acu-Link.com,2013-11-21 19:52:00,
2013-11-21 15:07:00,44.4,31.0,30.32,ESE,112,3.2,-999.0,59,-99.99,,,0.00,Acu-Link.com,2013-11-21 20:07:00,
2013-11-21 15:22:00,44.1,30.7,30.33,ESE,112,2.2,-999.0,59,-99.99,,,0.00,Acu-Link.com,2013-11-21 20:22:00,
2013-11-21 15:38:00,43.7,31.1,30.33,ENE,67,2.2,-999.0,61,-99.99,,,0.00,Acu-Link.com,2013-11-21 20:38:00,
2013-11-21 15:53:00,43.3,30.8,30.32,East,90,1.7,-999.0,61,-99.99,,,0.00,Acu-Link.com,2013-11-21 20:53:00,
2013-11-21 16:08:00,43.2,31.1,30.32,ESE,112,0.0,-999.0,62,-99.99,,,0.00,Acu-Link.com,2013-11-21 21:08:00,
2013-11-21 16:23:00,42.8,30.7,30.33,East,90,0.0,-999.0,62,-99.99,,,0.00,Acu-Link.com,2013-11-21 21:23:00,
2013-11-21 16:38:00,42.3,30.2,30.32,ESE,112,0.0,-999.0,62,-99.99,,,0.00,Acu-Link.com,2013-11-21 21:38:00,
2013-11-21 16:54:00,42.1,30.0,30.32,ESE,112,0.0,-999.0,62,-99.99,,,0.00,Acu-Link.com,2013-11-21 21:54:00,
2013-11-21 17:09:00,41.5,29.9,30.32,ENE,67,0.0,-999.0,63,-99.99,,,0.00,Acu-Link.com,2013-11-21 22:09:00,
2013-11-21 17:33:00,41.4,30.1,30.32,ENE,67,0.0,-999.0,64,-99.99,,,0.00,Acu-Link.com,2013-11-21 22:33:00,
2013-11-21 18:09:00,40.6,30.5,30.33,West,270,0.0,-999.0,67,-99.99,,,0.00,Acu-Link.com,2013-11-21 23:09:00,
2013-11-21 18:25:00,40.5,30.4,30.33,ESE,112,0.0,-999.0,67,-99.99,,,0.00,Acu-Link.com,2013-11-21 23:25:00,
2013-11-21 18:40:00,40.1,31.1,30.31,ESE,112,0.0,-999.0,70,-99.99,,,0.00,Acu-Link.com,2013-11-21 23:40:00,
2013-11-21 18:55:00,39.7,31.1,30.31,West,270,0.0,-999.0,71,-99.99,,,0.00,Acu-Link.com,2013-11-21 23:55:00,
2013-11-21 19:10:00,39.6,31.3,30.31,East,90,0.0,-999.0,72,-99.99,,,0.00,Acu-Link.com,2013-11-22 00:10:00,
2013-11-21 19:25:00,39.6,32.3,30.31,NW,315,0.0,-999.0,75,-99.99,,,0.00,Acu-Link.com,2013-11-22 00:25:00,
2013-11-21 19:41:00,39.4,32.1,30.31,West,270,0.0,-999.0,75,-99.99,,,0.00,Acu-Link.com,2013-11-22 00:41:00,
2013-11-21 19:56:00,39.4,32.1,30.30,West,270,0.0,-999.0,75,-99.99,,,0.00,Acu-Link.com,2013-11-22 00:56:00,
2013-11-21 20:11:00,39.2,32.0,30.30,WNW,292,0.0,-999.0,75,-99.99,,,0.00,Acu-Link.com,2013-11-22 01:11:00,
2013-11-21 20:26:00,39.0,32.1,30.30,West,270,0.0,-999.0,76,-99.99,,,0.00,Acu-Link.com,2013-11-22 01:26:00,
2013-11-21 20:41:00,39.0,32.1,30.30,West,270,0.0,-999.0,76,-99.99,,,0.00,Acu-Link.com,2013-11-22 01:41:00,
2013-11-21 20:57:00,39.0,31.8,30.29,West,270,0.0,-999.0,75,-99.99,,,0.00,Acu-Link.com,2013-11-22 01:57:00,
2013-11-21 21:12:00,39.0,31.1,30.29,NW,315,0.0,-999.0,73,-99.99,,,0.00,Acu-Link.com,2013-11-22 02:12:00,
2013-11-21 21:27:00,38.8,30.9,30.29,WNW,292,0.0,-999.0,73,-99.99,,,0.00,Acu-Link.com,2013-11-22 02:27:00,
2013-11-21 21:42:00,38.8,30.6,30.29,NNW,337,0.0,-999.0,72,-99.99,,,0.00,Acu-Link.com,2013-11-22 02:42:00,
2013-11-21 21:57:00,39.0,30.8,30.29,NNW,337,0.0,-999.0,72,-99.99,,,0.00,Acu-Link.com,2013-11-22 02:57:00,
2013-11-21 22:12:00,39.2,31.3,30.27,ESE,112,0.0,-999.0,73,-99.99,,,0.00,Acu-Link.com,2013-11-22 03:12:00,
2013-11-21 22:28:00,39.4,31.8,30.27,West,270,0.0,-999.0,74,-99.99,,,0.00,Acu-Link.com,2013-11-22 03:28:00,
2013-11-21 22:43:00,39.4,32.1,30.27,West,270,0.0,-999.0,75,-99.99,,,0.00,Acu-Link.com,2013-11-22 03:43:00,
2013-11-21 22:58:00,39.4,32.1,30.26,West,270,0.0,-999.0,75,-99.99,,,0.00,Acu-Link.com,2013-11-22 03:58:00,
2013-11-21 23:13:00,39.4,31.8,30.25,WSW,247,0.0,-999.0,74,-99.99,,,0.00,Acu-Link.com,2013-11-22 04:13:00,
2013-11-21 23:28:00,39.4,31.8,30.26,WNW,292,0.0,-999.0,74,-99.99,,,0.00,Acu-Link.com,2013-11-22 04:28:00,
2013-11-21 23:44:00,39.6,31.7,30.25,North,0,0.0,-999.0,73,-99.99,,,0.00,Acu-Link.com,2013-11-22 04:44:00,
2013-11-21 23:59:00,39.6,32.0,30.24,NNW,337,0.0,-999.0,74,-99.99,,,0.00,Acu-Link.com,2013-11-22 04:59:00,